Terminal Aerodrome Forecast
Issued by NWS

Current Version | Previous Version | Graphics & Text | Print | Product List | Glossary On
Versions: 1 2 3 4 5 6 7 8 9 10 11 12 13 14 15 16 17
526
FTUS41 KPBZ 211735
TAFMGW
TAF
KMGW 211735Z 2118/2218 29004KT P6SM BKN035
     FM212200 31005KT P6SM SCT250
     FM220400 32008KT P6SM BKN090
     FM220700 34010G25KT P6SM SCT050
     FM221400 34009KT P6SM FEW250=

USA.gov is the U.S. government's official web portal to all federal, state and local government web resources and services.